Terminal Aerodrome Forecast
Issued by NWS

Home | Current Version | Previous Version | Text Only | Print | Product List | Glossary On
Versions: 1 2 3 4 5 6 7 8 9 10 11 12 13 14 15
000
FTUS42 TJSJ 291100
TAFJMZ
TAF
TJMZ 291140Z 2912/3012 07005KT P6SM SCT025
     FM291600 29010KT P6SM VCTS SCT025 BKN040CB
      TEMPO 2917/2920 VRB10G20KT 3SM TSRA BKN030CB
     FM292200 06006KT P6SM SCT025 SCT040
      AMD NOT SKED TIL 291600=

USA.gov is the U.S. government's official web portal to all federal, state and local government web resources and services.